sensor_id;sensor_type;location;lat;lon;timestamp;temperature;humidity
20162;DHT22;51382;53.180;15.414;2023-04-01T00:02:41;9.70;99.90
20162;DHT22;51382;53.180;15.414;2023-04-01T00:17:50;9.50;99.90
20162;DHT22;51382;53.180;15.414;2023-04-01T00:32:54;9.60;99.90
20162;DHT22;51382;53.180;15.414;2023-04-01T00:48:05;9.50;99.90
20162;DHT22;51382;53.180;15.414;2023-04-01T01:03:13;9.50;99.90
20162;DHT22;51382;53.180;15.414;2023-04-01T01:18:23;9.40;99.90
20162;DHT22;51382;53.180;15.414;2023-04-01T01:33:41;9.50;99.90
20162;DHT22;51382;53.180;15.414;2023-04-01T01:48:53;9.40;99.90
20162;DHT22;51382;53.180;15.414;2023-04-01T02:03:59;9.60;99.90
20162;DHT22;51382;53.180;15.414;2023-04-01T02:19:05;9.40;99.90
20162;DHT22;51382;53.180;15.414;2023-04-01T02:34:11;9.40;99.90
20162;DHT22;51382;53.180;15.414;2023-04-01T02:49:15;9.40;99.90
20162;DHT22;51382;53.180;15.414;2023-04-01T03:04:25;9.20;99.90
20162;DHT22;51382;53.180;15.414;2023-04-01T03:19:37;8.80;99.90
20162;DHT22;51382;53.180;15.414;2023-04-01T03:34:42;8.10;99.90
20162;DHT22;51382;53.180;15.414;2023-04-01T03:49:47;7.90;99.90
20162;DHT22;51382;53.180;15.414;2023-04-01T04:04:56;7.50;99.90
20162;DHT22;51382;53.180;15.414;2023-04-01T04:20:04;7.20;99.90
20162;DHT22;51382;53.180;15.414;2023-04-01T04:35:17;7.10;99.90
20162;DHT22;51382;53.180;15.414;2023-04-01T04:50:22;7.00;99.90
20162;DHT22;51382;53.180;15.414;2023-04-01T05:05:27;7.10;99.90
20162;DHT22;51382;53.180;15.414;2023-04-01T05:20:32;6.90;99.90
20162;DHT22;51382;53.180;15.414;2023-04-01T05:35:42;6.70;99.90
20162;DHT22;51382;53.180;15.414;2023-04-01T05:50:48;6.60;99.90
20162;DHT22;51382;53.180;15.414;2023-04-01T06:05:58;6.60;99.90
20162;DHT22;51382;53.180;15.414;2023-04-01T06:21:09;6.50;99.90
20162;DHT22;51382;53.180;15.414;2023-04-01T06:36:42;6.50;99.90
20162;DHT22;51382;53.180;15.414;2023-04-01T06:51:55;6.60;99.90
20162;DHT22;51382;53.180;15.414;2023-04-01T07:07:34;6.70;99.90
20162;DHT22;51382;53.180;15.414;2023-04-01T07:22:45;6.70;99.90
20162;DHT22;51382;53.180;15.414;2023-04-01T07:38:13;6.60;99.90
20162;DHT22;51382;53.180;15.414;2023-04-01T07:53:30;6.80;99.90
20162;DHT22;51382;53.180;15.414;2023-04-01T08:08:43;7.50;99.90
20162;DHT22;51382;53.180;15.414;2023-04-01T08:24:39;7.50;99.90
20162;DHT22;51382;53.180;15.414;2023-04-01T08:39:59;7.70;99.90
20162;DHT22;51382;53.180;15.414;2023-04-01T08:55:27;7.50;99.90
20162;DHT22;51382;53.180;15.414;2023-04-01T09:11:06;7.60;99.90
20162;DHT22;51382;53.180;15.414;2023-04-01T09:26:31;7.70;99.90
20162;DHT22;51382;53.180;15.414;2023-04-01T09:41:51;7.40;99.90
20162;DHT22;51382;53.180;15.414;2023-04-01T09:57:25;7.50;99.90
20162;DHT22;51382;53.180;15.414;2023-04-01T10:28:54;7.90;99.90
20162;DHT22;51382;53.180;15.414;2023-04-01T10:44:30;8.60;99.90
20162;DHT22;51382;53.180;15.414;2023-04-01T11:15:59;8.10;99.90
20162;DHT22;51382;53.180;15.414;2023-04-01T11:31:44;8.10;99.90
20162;DHT22;51382;53.180;15.414;2023-04-01T11:47:12;8.60;99.90
20162;DHT22;51382;53.180;15.414;2023-04-01T12:02:44;8.30;99.90
20162;DHT22;51382;53.180;15.414;2023-04-01T12:18:04;7.90;99.90
20162;DHT22;51382;53.180;15.414;2023-04-01T12:33:36;7.90;99.90
20162;DHT22;51382;53.180;15.414;2023-04-01T13:04:47;8.10;99.90
20162;DHT22;51382;53.180;15.414;2023-04-01T13:20:13;8.10;99.90
20162;DHT22;51382;53.180;15.414;2023-04-01T13:35:33;8.10;99.90
20162;DHT22;51382;53.180;15.414;2023-04-01T13:50:51;7.90;99.90
20162;DHT22;51382;53.180;15.414;2023-04-01T14:21:46;7.00;99.90
20162;DHT22;51382;53.180;15.414;2023-04-01T14:37:05;6.80;99.90
20162;DHT22;51382;53.180;15.414;2023-04-01T14:52:46;6.60;99.90
20162;DHT22;51382;53.180;15.414;2023-04-01T15:08:03;6.40;99.90
20162;DHT22;51382;53.180;15.414;2023-04-01T15:23:17;6.30;99.90
20162;DHT22;51382;53.180;15.414;2023-04-01T15:38:41;6.00;99.90
20162;DHT22;51382;53.180;15.414;2023-04-01T16:24:51;5.30;99.90
20162;DHT22;51382;53.180;15.414;2023-04-01T16:40:13;5.30;99.90
20162;DHT22;51382;53.180;15.414;2023-04-01T16:55:34;5.20;99.90
20162;DHT22;51382;53.180;15.414;2023-04-01T17:10:49;5.10;99.90
20162;DHT22;51382;53.180;15.414;2023-04-01T17:41:32;4.70;99.90
20162;DHT22;51382;53.180;15.414;2023-04-01T17:56:54;4.70;99.90
20162;DHT22;51382;53.180;15.414;2023-04-01T18:12:21;4.60;99.90
20162;DHT22;51382;53.180;15.414;2023-04-01T18:27:36;4.60;99.90
20162;DHT22;51382;53.180;15.414;2023-04-01T18:42:50;4.50;99.90
20162;DHT22;51382;53.180;15.414;2023-04-01T18:58:20;4.50;99.90
20162;DHT22;51382;53.180;15.414;2023-04-01T19:13:32;4.50;99.90
20162;DHT22;51382;53.180;15.414;2023-04-01T19:28:51;4.20;99.90
20162;DHT22;51382;53.180;15.414;2023-04-01T19:44:04;4.10;99.90
20162;DHT22;51382;53.180;15.414;2023-04-01T19:59:21;4.10;99.90
20162;DHT22;51382;53.180;15.414;2023-04-01T20:14:40;4.00;99.90
20162;DHT22;51382;53.180;15.414;2023-04-01T20:29:59;3.90;99.90
20162;DHT22;51382;53.180;15.414;2023-04-01T20:45:40;3.70;99.90
20162;DHT22;51382;53.180;15.414;2023-04-01T21:03:59;3.70;99.90
20162;DHT22;51382;53.180;15.414;2023-04-01T21:19:27;3.70;99.90
20162;DHT22;51382;53.180;15.414;2023-04-01T21:34:53;3.60;99.90
20162;DHT22;51382;53.180;15.414;2023-04-01T22:05:54;3.50;99.90
20162;DHT22;51382;53.180;15.414;2023-04-01T22:21:15;3.40;99.90
20162;DHT22;51382;53.180;15.414;2023-04-01T22:36:28;3.30;99.90
20162;DHT22;51382;53.180;15.414;2023-04-01T22:51:45;3.30;99.90
20162;DHT22;51382;53.180;15.414;2023-04-01T23:07:02;3.20;99.90
20162;DHT22;51382;53.180;15.414;2023-04-01T23:22:21;3.30;99.90
20162;DHT22;51382;53.180;15.414;2023-04-01T23:37:40;3.30;99.90
20162;DHT22;51382;53.180;15.414;2023-04-01T23:52:48;3.40;99.90
